sensor_id;sensor_type;location;lat;lon;timestamp;P1;durP1;ratioP1;P2;durP2;ratioP2
12869;SDS011;6503;48.572;13.460;2023-04-01T00:02:26;3.85;;;1.08;;
12869;SDS011;6503;48.572;13.460;2023-04-01T00:04:58;5.47;;;1.23;;
12869;SDS011;6503;48.572;13.460;2023-04-01T00:07:33;2.08;;;1.00;;
12869;SDS011;6503;48.572;13.460;2023-04-01T00:10:14;2.88;;;1.05;;
12869;SDS011;6503;48.572;13.460;2023-04-01T00:12:56;4.72;;;1.10;;
12869;SDS011;6503;48.572;13.460;2023-04-01T00:15:38;3.45;;;1.00;;
12869;SDS011;6503;48.572;13.460;2023-04-01T00:18:08;4.55;;;1.33;;
12869;SDS011;6503;48.572;13.460;2023-04-01T00:20:44;2.58;;;1.35;;
12869;SDS011;6503;48.572;13.460;2023-04-01T00:23:31;4.75;;;1.27;;
12869;SDS011;6503;48.572;13.460;2023-04-01T00:26:09;6.10;;;2.40;;
12869;SDS011;6503;48.572;13.460;2023-04-01T00:28:47;5.97;;;1.30;;
12869;SDS011;6503;48.572;13.460;2023-04-01T00:31:21;3.58;;;1.10;;
12869;SDS011;6503;48.572;13.460;2023-04-01T00:33:53;4.82;;;1.35;;
12869;SDS011;6503;48.572;13.460;2023-04-01T00:36:35;4.15;;;1.23;;
12869;SDS011;6503;48.572;13.460;2023-04-01T00:39:16;4.57;;;1.27;;
12869;SDS011;6503;48.572;13.460;2023-04-01T00:41:46;4.15;;;0.95;;
12869;SDS011;6503;48.572;13.460;2023-04-01T00:44:20;4.45;;;1.23;;
12869;SDS011;6503;48.572;13.460;2023-04-01T00:47:00;4.30;;;1.30;;
12869;SDS011;6503;48.572;13.460;2023-04-01T00:49:34;3.72;;;0.95;;
12869;SDS011;6503;48.572;13.460;2023-04-01T00:52:19;2.30;;;1.15;;
12869;SDS011;6503;48.572;13.460;2023-04-01T00:54:54;3.25;;;1.05;;
12869;SDS011;6503;48.572;13.460;2023-04-01T00:57:37;2.83;;;0.75;;
12869;SDS011;6503;48.572;13.460;2023-04-01T01:00:18;4.72;;;0.80;;
12869;SDS011;6503;48.572;13.460;2023-04-01T01:02:55;3.78;;;0.73;;
12869;SDS011;6503;48.572;13.460;2023-04-01T01:05:35;1.45;;;0.80;;
12869;SDS011;6503;48.572;13.460;2023-04-01T01:08:08;1.77;;;0.73;;
12869;SDS011;6503;48.572;13.460;2023-04-01T01:10:44;1.83;;;0.52;;
12869;SDS011;6503;48.572;13.460;2023-04-01T01:13:22;3.92;;;0.90;;
12869;SDS011;6503;48.572;13.460;2023-04-01T01:15:56;1.92;;;0.60;;
12869;SDS011;6503;48.572;13.460;2023-04-01T01:18:41;3.88;;;0.90;;
12869;SDS011;6503;48.572;13.460;2023-04-01T01:21:32;2.45;;;0.70;;
12869;SDS011;6503;48.572;13.460;2023-04-01T01:24:13;1.77;;;0.60;;
12869;SDS011;6503;48.572;13.460;2023-04-01T01:26:52;1.88;;;0.50;;
12869;SDS011;6503;48.572;13.460;2023-04-01T01:32:24;3.30;;;0.90;;
12869;SDS011;6503;48.572;13.460;2023-04-01T01:35:13;3.35;;;0.60;;
12869;SDS011;6503;48.572;13.460;2023-04-01T01:37:52;2.28;;;0.68;;
12869;SDS011;6503;48.572;13.460;2023-04-01T01:45:54;2.63;;;0.70;;
12869;SDS011;6503;48.572;13.460;2023-04-01T01:51:32;3.85;;;0.60;;
12869;SDS011;6503;48.572;13.460;2023-04-01T01:54:01;3.38;;;0.55;;
12869;SDS011;6503;48.572;13.460;2023-04-01T01:56:29;1.23;;;0.60;;
12869;SDS011;6503;48.572;13.460;2023-04-01T01:58:58;1.23;;;0.45;;
12869;SDS011;6503;48.572;13.460;2023-04-01T02:01:27;1.65;;;0.55;;
12869;SDS011;6503;48.572;13.460;2023-04-01T02:03:55;2.83;;;0.60;;
12869;SDS011;6503;48.572;13.460;2023-04-01T02:06:23;2.90;;;0.70;;
12869;SDS011;6503;48.572;13.460;2023-04-01T02:08:56;2.17;;;0.52;;
12869;SDS011;6503;48.572;13.460;2023-04-01T02:13:52;2.25;;;0.55;;
12869;SDS011;6503;48.572;13.460;2023-04-01T02:16:22;1.23;;;0.60;;
12869;SDS011;6503;48.572;13.460;2023-04-01T02:18:51;3.13;;;0.82;;
12869;SDS011;6503;48.572;13.460;2023-04-01T02:21:23;2.13;;;0.50;;
12869;SDS011;6503;48.572;13.460;2023-04-01T02:23:51;0.95;;;0.38;;
12869;SDS011;6503;48.572;13.460;2023-04-01T02:26:22;1.75;;;0.47;;
12869;SDS011;6503;48.572;13.460;2023-04-01T02:31:18;2.28;;;0.60;;
12869;SDS011;6503;48.572;13.460;2023-04-01T02:33:46;1.20;;;0.57;;
12869;SDS011;6503;48.572;13.460;2023-04-01T02:36:14;2.58;;;0.70;;
12869;SDS011;6503;48.572;13.460;2023-04-01T02:38:43;3.55;;;0.57;;
12869;SDS011;6503;48.572;13.460;2023-04-01T02:41:15;1.25;;;0.60;;
12869;SDS011;6503;48.572;13.460;2023-04-01T02:43:44;1.13;;;0.60;;
12869;SDS011;6503;48.572;13.460;2023-04-01T02:46:11;2.90;;;0.50;;
12869;SDS011;6503;48.572;13.460;2023-04-01T02:48:41;2.05;;;0.57;;
12869;SDS011;6503;48.572;13.460;2023-04-01T02:51:09;2.92;;;0.80;;
12869;SDS011;6503;48.572;13.460;2023-04-01T02:53:36;0.85;;;0.60;;
12869;SDS011;6503;48.572;13.460;2023-04-01T02:56:04;1.60;;;0.40;;
12869;SDS011;6503;48.572;13.460;2023-04-01T02:58:31;1.30;;;0.40;;
12869;SDS011;6503;48.572;13.460;2023-04-01T03:01:01;2.28;;;0.60;;
12869;SDS011;6503;48.572;13.460;2023-04-01T03:03:28;3.05;;;0.55;;
12869;SDS011;6503;48.572;13.460;2023-04-01T03:05:56;1.70;;;0.60;;
12869;SDS011;6503;48.572;13.460;2023-04-01T03:08:25;2.20;;;0.60;;
12869;SDS011;6503;48.572;13.460;2023-04-01T03:10:52;2.05;;;0.63;;
12869;SDS011;6503;48.572;13.460;2023-04-01T03:13:19;1.17;;;0.50;;
12869;SDS011;6503;48.572;13.460;2023-04-01T03:15:47;1.33;;;0.47;;
12869;SDS011;6503;48.572;13.460;2023-04-01T03:18:18;3.00;;;0.60;;
12869;SDS011;6503;48.572;13.460;2023-04-01T03:20:46;2.25;;;0.60;;
12869;SDS011;6503;48.572;13.460;2023-04-01T03:23:13;5.10;;;0.95;;
12869;SDS011;6503;48.572;13.460;2023-04-01T03:25:44;4.05;;;0.68;;
12869;SDS011;6503;48.572;13.460;2023-04-01T03:28:11;2.00;;;0.57;;
12869;SDS011;6503;48.572;13.460;2023-04-01T03:33:09;3.15;;;0.45;;
12869;SDS011;6503;48.572;13.460;2023-04-01T03:35:38;1.38;;;0.45;;
12869;SDS011;6503;48.572;13.460;2023-04-01T03:38:05;3.47;;;0.50;;
12869;SDS011;6503;48.572;13.460;2023-04-01T03:40:33;1.75;;;0.55;;
12869;SDS011;6503;48.572;13.460;2023-04-01T03:43:02;1.77;;;0.60;;
12869;SDS011;6503;48.572;13.460;2023-04-01T03:45:33;1.73;;;0.60;;
12869;SDS011;6503;48.572;13.460;2023-04-01T03:48:00;4.50;;;0.70;;
12869;SDS011;6503;48.572;13.460;2023-04-01T03:50:27;2.22;;;0.50;;
12869;SDS011;6503;48.572;13.460;2023-04-01T03:52:57;1.80;;;0.50;;
12869;SDS011;6503;48.572;13.460;2023-04-01T03:55:24;2.40;;;0.60;;
12869;SDS011;6503;48.572;13.460;2023-04-01T03:57:53;2.92;;;0.52;;
12869;SDS011;6503;48.572;13.460;2023-04-01T04:00:27;1.25;;;0.60;;
12869;SDS011;6503;48.572;13.460;2023-04-01T04:02:54;1.08;;;0.40;;
12869;SDS011;6503;48.572;13.460;2023-04-01T04:05:22;2.88;;;0.52;;
12869;SDS011;6503;48.572;13.460;2023-04-01T04:07:52;3.65;;;0.70;;
12869;SDS011;6503;48.572;13.460;2023-04-01T04:10:24;2.72;;;1.10;;
12869;SDS011;6503;48.572;13.460;2023-04-01T04:12:54;1.38;;;0.40;;
12869;SDS011;6503;48.572;13.460;2023-04-01T04:15:21;2.47;;;0.60;;
12869;SDS011;6503;48.572;13.460;2023-04-01T04:17:48;1.35;;;0.50;;
12869;SDS011;6503;48.572;13.460;2023-04-01T04:20:16;2.47;;;0.80;;
12869;SDS011;6503;48.572;13.460;2023-04-01T04:22:43;1.25;;;0.50;;
12869;SDS011;6503;48.572;13.460;2023-04-01T04:25:11;2.72;;;0.50;;
12869;SDS011;6503;48.572;13.460;2023-04-01T04:27:39;1.52;;;0.40;;
12869;SDS011;6503;48.572;13.460;2023-04-01T04:30:07;1.83;;;0.68;;
12869;SDS011;6503;48.572;13.460;2023-04-01T04:32:35;3.30;;;0.40;;
12869;SDS011;6503;48.572;13.460;2023-04-01T04:35:03;2.00;;;0.60;;
12869;SDS011;6503;48.572;13.460;2023-04-01T04:37:31;1.52;;;0.60;;
12869;SDS011;6503;48.572;13.460;2023-04-01T04:39:58;1.52;;;0.40;;
12869;SDS011;6503;48.572;13.460;2023-04-01T04:42:26;2.25;;;0.60;;
12869;SDS011;6503;48.572;13.460;2023-04-01T04:44:55;1.42;;;0.60;;
12869;SDS011;6503;48.572;13.460;2023-04-01T04:47:22;2.23;;;0.57;;
12869;SDS011;6503;48.572;13.460;2023-04-01T04:49:50;1.77;;;0.40;;
12869;SDS011;6503;48.572;13.460;2023-04-01T04:52:17;2.78;;;0.57;;
12869;SDS011;6503;48.572;13.460;2023-04-01T04:54:45;1.58;;;0.45;;
12869;SDS011;6503;48.572;13.460;2023-04-01T04:57:12;3.00;;;0.77;;
12869;SDS011;6503;48.572;13.460;2023-04-01T04:59:40;0.98;;;0.40;;
12869;SDS011;6503;48.572;13.460;2023-04-01T05:02:12;3.60;;;0.80;;
12869;SDS011;6503;48.572;13.460;2023-04-01T05:04:40;2.88;;;0.50;;
12869;SDS011;6503;48.572;13.460;2023-04-01T05:07:07;3.33;;;0.50;;
12869;SDS011;6503;48.572;13.460;2023-04-01T05:09:34;2.53;;;0.50;;
12869;SDS011;6503;48.572;13.460;2023-04-01T05:12:02;1.23;;;0.43;;
12869;SDS011;6503;48.572;13.460;2023-04-01T05:14:30;1.70;;;0.43;;
12869;SDS011;6503;48.572;13.460;2023-04-01T05:16:57;1.27;;;0.50;;
12869;SDS011;6503;48.572;13.460;2023-04-01T05:19:26;2.47;;;0.50;;
12869;SDS011;6503;48.572;13.460;2023-04-01T05:21:53;1.33;;;0.38;;
12869;SDS011;6503;48.572;13.460;2023-04-01T05:24:21;2.92;;;0.80;;
12869;SDS011;6503;48.572;13.460;2023-04-01T05:26:48;2.85;;;0.50;;
12869;SDS011;6503;48.572;13.460;2023-04-01T05:29:16;0.47;;;0.40;;
12869;SDS011;6503;48.572;13.460;2023-04-01T05:31:44;1.55;;;0.60;;
12869;SDS011;6503;48.572;13.460;2023-04-01T05:34:17;3.78;;;0.70;;
12869;SDS011;6503;48.572;13.460;2023-04-01T05:37:00;1.33;;;0.50;;
12869;SDS011;6503;48.572;13.460;2023-04-01T05:39:41;0.55;;;0.40;;
12869;SDS011;6503;48.572;13.460;2023-04-01T05:42:11;1.52;;;0.30;;
12869;SDS011;6503;48.572;13.460;2023-04-01T05:44:41;2.00;;;0.50;;
12869;SDS011;6503;48.572;13.460;2023-04-01T05:47:22;0.90;;;0.40;;
12869;SDS011;6503;48.572;13.460;2023-04-01T05:50:03;0.73;;;0.32;;
12869;SDS011;6503;48.572;13.460;2023-04-01T05:52:33;3.33;;;0.60;;
12869;SDS011;6503;48.572;13.460;2023-04-01T05:55:03;1.13;;;0.50;;
12869;SDS011;6503;48.572;13.460;2023-04-01T05:57:32;2.28;;;0.50;;
12869;SDS011;6503;48.572;13.460;2023-04-01T05:59:59;1.58;;;0.25;;
12869;SDS011;6503;48.572;13.460;2023-04-01T06:05:03;1.40;;;0.38;;
12869;SDS011;6503;48.572;13.460;2023-04-01T06:07:34;1.88;;;0.30;;
12869;SDS011;6503;48.572;13.460;2023-04-01T06:10:05;1.10;;;0.50;;
12869;SDS011;6503;48.572;13.460;2023-04-01T06:15:18;0.75;;;0.43;;
12869;SDS011;6503;48.572;13.460;2023-04-01T06:52:05;2.00;;;0.38;;
12869;SDS011;6503;48.572;13.460;2023-04-01T06:54:35;1.33;;;0.47;;
12869;SDS011;6503;48.572;13.460;2023-04-01T06:57:10;1.55;;;0.50;;
12869;SDS011;6503;48.572;13.460;2023-04-01T06:59:45;1.35;;;0.40;;
12869;SDS011;6503;48.572;13.460;2023-04-01T07:07:31;1.13;;;1.02;;
12869;SDS011;6503;48.572;13.460;2023-04-01T07:10:21;1.25;;;0.52;;
12869;SDS011;6503;48.572;13.460;2023-04-01T07:18:29;0.50;;;0.43;;
12869;SDS011;6503;48.572;13.460;2023-04-01T07:22:21;1.75;;;0.50;;
12869;SDS011;6503;48.572;13.460;2023-04-01T07:30:39;0.52;;;0.50;;
12869;SDS011;6503;48.572;13.460;2023-04-01T07:33:38;1.73;;;1.15;;
12869;SDS011;6503;48.572;13.460;2023-04-01T07:36:39;0.93;;;0.70;;
12869;SDS011;6503;48.572;13.460;2023-04-01T07:40:51;0.55;;;0.45;;
12869;SDS011;6503;48.572;13.460;2023-04-01T07:42:36;0.88;;;0.40;;
12869;SDS011;6503;48.572;13.460;2023-04-01T07:45:43;0.88;;;0.50;;
12869;SDS011;6503;48.572;13.460;2023-04-01T07:48:33;2.05;;;0.80;;
12869;SDS011;6503;48.572;13.460;2023-04-01T07:51:07;2.17;;;0.50;;
12869;SDS011;6503;48.572;13.460;2023-04-01T07:53:37;1.77;;;0.68;;
12869;SDS011;6503;48.572;13.460;2023-04-01T07:56:11;2.58;;;1.00;;
12869;SDS011;6503;48.572;13.460;2023-04-01T07:58:51;1.08;;;0.45;;
12869;SDS011;6503;48.572;13.460;2023-04-01T08:01:23;1.85;;;0.40;;
12869;SDS011;6503;48.572;13.460;2023-04-01T08:03:59;2.25;;;0.70;;
12869;SDS011;6503;48.572;13.460;2023-04-01T08:06:35;1.75;;;0.50;;
12869;SDS011;6503;48.572;13.460;2023-04-01T08:09:07;0.90;;;0.50;;
12869;SDS011;6503;48.572;13.460;2023-04-01T08:11:40;0.70;;;0.40;;
12869;SDS011;6503;48.572;13.460;2023-04-01T08:14:10;1.38;;;0.40;;
12869;SDS011;6503;48.572;13.460;2023-04-01T08:16:45;0.80;;;0.45;;
12869;SDS011;6503;48.572;13.460;2023-04-01T08:19:20;1.23;;;0.50;;
12869;SDS011;6503;48.572;13.460;2023-04-01T08:21:49;1.95;;;0.63;;
12869;SDS011;6503;48.572;13.460;2023-04-01T08:24:23;0.95;;;0.60;;
12869;SDS011;6503;48.572;13.460;2023-04-01T08:26:53;1.35;;;0.60;;
12869;SDS011;6503;48.572;13.460;2023-04-01T08:29:22;1.17;;;0.50;;
12869;SDS011;6503;48.572;13.460;2023-04-01T08:31:53;1.17;;;0.40;;
12869;SDS011;6503;48.572;13.460;2023-04-01T08:34:28;1.38;;;0.50;;
12869;SDS011;6503;48.572;13.460;2023-04-01T08:36:59;1.25;;;0.50;;
12869;SDS011;6503;48.572;13.460;2023-04-01T08:39:32;0.82;;;0.45;;
12869;SDS011;6503;48.572;13.460;2023-04-01T08:45:07;1.88;;;0.75;;
12869;SDS011;6503;48.572;13.460;2023-04-01T08:56:17;2.78;;;0.70;;
12869;SDS011;6503;48.572;13.460;2023-04-01T08:58:56;4.72;;;1.00;;
12869;SDS011;6503;48.572;13.460;2023-04-01T09:09:55;0.88;;;0.40;;
12869;SDS011;6503;48.572;13.460;2023-04-01T09:18:26;1.40;;;0.60;;
12869;SDS011;6503;48.572;13.460;2023-04-01T09:21:14;0.88;;;0.32;;
12869;SDS011;6503;48.572;13.460;2023-04-01T09:23:54;1.33;;;0.50;;
12869;SDS011;6503;48.572;13.460;2023-04-01T09:26:37;1.42;;;0.70;;
12869;SDS011;6503;48.572;13.460;2023-04-01T09:29:15;4.40;;;2.53;;
12869;SDS011;6503;48.572;13.460;2023-04-01T09:31:59;1.83;;;0.60;;
12869;SDS011;6503;48.572;13.460;2023-04-01T09:34:43;2.13;;;0.60;;
12869;SDS011;6503;48.572;13.460;2023-04-01T09:37:19;1.60;;;0.60;;
12869;SDS011;6503;48.572;13.460;2023-04-01T09:40:01;3.53;;;0.60;;
12869;SDS011;6503;48.572;13.460;2023-04-01T09:45:22;2.42;;;0.57;;
12869;SDS011;6503;48.572;13.460;2023-04-01T09:47:59;1.02;;;0.55;;
12869;SDS011;6503;48.572;13.460;2023-04-01T09:50:34;0.95;;;0.60;;
12869;SDS011;6503;48.572;13.460;2023-04-01T09:53:13;1.25;;;0.65;;
12869;SDS011;6503;48.572;13.460;2023-04-01T09:58:37;1.48;;;0.63;;
12869;SDS011;6503;48.572;13.460;2023-04-01T10:04:17;1.60;;;0.55;;
12869;SDS011;6503;48.572;13.460;2023-04-01T10:07:01;1.63;;;0.32;;
12869;SDS011;6503;48.572;13.460;2023-04-01T10:09:45;1.27;;;0.90;;
12869;SDS011;6503;48.572;13.460;2023-04-01T10:12:26;1.05;;;0.50;;
12869;SDS011;6503;48.572;13.460;2023-04-01T10:17:52;1.95;;;1.08;;
12869;SDS011;6503;48.572;13.460;2023-04-01T10:20:32;0.93;;;0.50;;
12869;SDS011;6503;48.572;13.460;2023-04-01T10:23:19;1.20;;;0.40;;
12869;SDS011;6503;48.572;13.460;2023-04-01T10:25:58;1.90;;;0.68;;
12869;SDS011;6503;48.572;13.460;2023-04-01T10:28:35;2.08;;;0.70;;
12869;SDS011;6503;48.572;13.460;2023-04-01T10:31:28;1.55;;;0.30;;
12869;SDS011;6503;48.572;13.460;2023-04-01T10:36:48;1.55;;;0.52;;
12869;SDS011;6503;48.572;13.460;2023-04-01T10:39:22;2.13;;;0.77;;
12869;SDS011;6503;48.572;13.460;2023-04-01T10:42:11;2.42;;;0.57;;
12869;SDS011;6503;48.572;13.460;2023-04-01T10:45:07;2.35;;;0.70;;
12869;SDS011;6503;48.572;13.460;2023-04-01T10:48:08;2.28;;;0.50;;
12869;SDS011;6503;48.572;13.460;2023-04-01T10:50:53;2.17;;;0.50;;
12869;SDS011;6503;48.572;13.460;2023-04-01T10:53:43;1.38;;;0.70;;
12869;SDS011;6503;48.572;13.460;2023-04-01T10:56:28;0.85;;;0.50;;
12869;SDS011;6503;48.572;13.460;2023-04-01T10:59:11;1.73;;;0.68;;
12869;SDS011;6503;48.572;13.460;2023-04-01T11:01:50;4.70;;;0.52;;
12869;SDS011;6503;48.572;13.460;2023-04-01T11:04:48;1.58;;;0.52;;
12869;SDS011;6503;48.572;13.460;2023-04-01T11:22:54;2.10;;;0.70;;
12869;SDS011;6503;48.572;13.460;2023-04-01T11:25:47;1.25;;;0.50;;
12869;SDS011;6503;48.572;13.460;2023-04-01T11:31:44;0.77;;;0.38;;
12869;SDS011;6503;48.572;13.460;2023-04-01T11:34:32;0.50;;;0.43;;
12869;SDS011;6503;48.572;13.460;2023-04-01T11:37:25;0.57;;;0.40;;
12869;SDS011;6503;48.572;13.460;2023-04-01T11:57:31;2.85;;;0.50;;
12869;SDS011;6503;48.572;13.460;2023-04-01T12:00:25;1.00;;;0.63;;
12869;SDS011;6503;48.572;13.460;2023-04-01T12:05:52;2.05;;;0.63;;
12869;SDS011;6503;48.572;13.460;2023-04-01T12:27:02;2.03;;;0.68;;
12869;SDS011;6503;48.572;13.460;2023-04-01T12:30:42;0.70;;;0.43;;
12869;SDS011;6503;48.572;13.460;2023-04-01T12:36:16;1.00;;;0.60;;
12869;SDS011;6503;48.572;13.460;2023-04-01T12:38:59;2.07;;;0.60;;
12869;SDS011;6503;48.572;13.460;2023-04-01T12:41:35;0.90;;;0.50;;
12869;SDS011;6503;48.572;13.460;2023-04-01T12:47:26;1.67;;;0.50;;
12869;SDS011;6503;48.572;13.460;2023-04-01T12:50:16;0.80;;;0.52;;
12869;SDS011;6503;48.572;13.460;2023-04-01T12:58:37;1.23;;;0.73;;
12869;SDS011;6503;48.572;13.460;2023-04-01T13:01:21;1.60;;;0.80;;
12869;SDS011;6503;48.572;13.460;2023-04-01T13:06:56;1.25;;;0.88;;
12869;SDS011;6503;48.572;13.460;2023-04-01T13:09:28;2.45;;;0.63;;
12869;SDS011;6503;48.572;13.460;2023-04-01T13:12:24;2.45;;;0.52;;
12869;SDS011;6503;48.572;13.460;2023-04-01T13:15:07;2.35;;;0.73;;
12869;SDS011;6503;48.572;13.460;2023-04-01T13:17:50;0.93;;;0.57;;
12869;SDS011;6503;48.572;13.460;2023-04-01T13:20:25;0.63;;;0.40;;
12869;SDS011;6503;48.572;13.460;2023-04-01T13:23:05;1.67;;;0.70;;
12869;SDS011;6503;48.572;13.460;2023-04-01T13:25:47;0.43;;;0.40;;
12869;SDS011;6503;48.572;13.460;2023-04-01T13:28:19;0.50;;;0.40;;
12869;SDS011;6503;48.572;13.460;2023-04-01T13:30:59;1.88;;;0.50;;
12869;SDS011;6503;48.572;13.460;2023-04-01T13:33:45;0.63;;;0.40;;
12869;SDS011;6503;48.572;13.460;2023-04-01T13:36:24;1.55;;;0.40;;
12869;SDS011;6503;48.572;13.460;2023-04-01T13:41:50;2.42;;;0.57;;
12869;SDS011;6503;48.572;13.460;2023-04-01T13:44:31;0.95;;;0.43;;
12869;SDS011;6503;48.572;13.460;2023-04-01T13:55:39;2.00;;;0.60;;
12869;SDS011;6503;48.572;13.460;2023-04-01T14:01:29;1.20;;;0.60;;
12869;SDS011;6503;48.572;13.460;2023-04-01T14:07:00;0.70;;;0.50;;
12869;SDS011;6503;48.572;13.460;2023-04-01T14:09:44;0.70;;;0.40;;
12869;SDS011;6503;48.572;13.460;2023-04-01T14:12:22;0.80;;;0.50;;
12869;SDS011;6503;48.572;13.460;2023-04-01T14:15:07;1.15;;;0.50;;
12869;SDS011;6503;48.572;13.460;2023-04-01T14:17:59;0.40;;;0.40;;
12869;SDS011;6503;48.572;13.460;2023-04-01T14:20:33;0.70;;;0.40;;
12869;SDS011;6503;48.572;13.460;2023-04-01T14:23:17;0.65;;;0.50;;
12869;SDS011;6503;48.572;13.460;2023-04-01T14:28:42;2.20;;;0.52;;
12869;SDS011;6503;48.572;13.460;2023-04-01T14:36:59;1.45;;;0.57;;
12869;SDS011;6503;48.572;13.460;2023-04-01T14:39:43;1.05;;;0.70;;
12869;SDS011;6503;48.572;13.460;2023-04-01T14:42:23;0.40;;;0.40;;
12869;SDS011;6503;48.572;13.460;2023-04-01T14:45:07;0.30;;;0.30;;
12869;SDS011;6503;48.572;13.460;2023-04-01T14:47:46;0.60;;;0.40;;
12869;SDS011;6503;48.572;13.460;2023-04-01T14:50:15;2.20;;;0.73;;
12869;SDS011;6503;48.572;13.460;2023-04-01T14:52:46;0.57;;;0.45;;
12869;SDS011;6503;48.572;13.460;2023-04-01T14:55:21;2.08;;;0.50;;
12869;SDS011;6503;48.572;13.460;2023-04-01T14:58:00;1.15;;;0.68;;
12869;SDS011;6503;48.572;13.460;2023-04-01T15:00:39;1.02;;;0.40;;
12869;SDS011;6503;48.572;13.460;2023-04-01T15:03:14;0.30;;;0.30;;
12869;SDS011;6503;48.572;13.460;2023-04-01T15:05:49;0.57;;;0.40;;
12869;SDS011;6503;48.572;13.460;2023-04-01T15:10:56;0.45;;;0.30;;
12869;SDS011;6503;48.572;13.460;2023-04-01T15:13:34;0.85;;;0.47;;
12869;SDS011;6503;48.572;13.460;2023-04-01T15:16:09;1.38;;;0.50;;
12869;SDS011;6503;48.572;13.460;2023-04-01T15:18:42;3.22;;;0.50;;
12869;SDS011;6503;48.572;13.460;2023-04-01T15:21:16;0.98;;;0.60;;
12869;SDS011;6503;48.572;13.460;2023-04-01T15:23:49;0.60;;;0.50;;
12869;SDS011;6503;48.572;13.460;2023-04-01T15:26:35;0.95;;;0.50;;
12869;SDS011;6503;48.572;13.460;2023-04-01T15:29:34;1.42;;;0.57;;
12869;SDS011;6503;48.572;13.460;2023-04-01T15:32:08;1.13;;;0.70;;
12869;SDS011;6503;48.572;13.460;2023-04-01T15:34:41;1.08;;;0.80;;
12869;SDS011;6503;48.572;13.460;2023-04-01T15:37:16;0.80;;;0.57;;
12869;SDS011;6503;48.572;13.460;2023-04-01T15:39:54;1.63;;;0.60;;
12869;SDS011;6503;48.572;13.460;2023-04-01T15:42:36;1.58;;;0.70;;
12869;SDS011;6503;48.572;13.460;2023-04-01T15:46:09;0.80;;;0.60;;
12869;SDS011;6503;48.572;13.460;2023-04-01T15:51:47;1.42;;;0.70;;
12869;SDS011;6503;48.572;13.460;2023-04-01T15:53:59;1.60;;;0.90;;
12869;SDS011;6503;48.572;13.460;2023-04-01T15:59:20;3.67;;;1.20;;
12869;SDS011;6503;48.572;13.460;2023-04-01T16:01:58;4.07;;;1.00;;
12869;SDS011;6503;48.572;13.460;2023-04-01T16:04:31;0.77;;;0.65;;
12869;SDS011;6503;48.572;13.460;2023-04-01T16:07:17;1.75;;;0.70;;
12869;SDS011;6503;48.572;13.460;2023-04-01T16:09:56;1.35;;;0.70;;
12869;SDS011;6503;48.572;13.460;2023-04-01T16:12:32;1.08;;;0.80;;
12869;SDS011;6503;48.572;13.460;2023-04-01T16:15:19;2.33;;;0.82;;
12869;SDS011;6503;48.572;13.460;2023-04-01T16:18:02;1.00;;;0.80;;
12869;SDS011;6503;48.572;13.460;2023-04-01T16:29:24;1.15;;;0.80;;
12869;SDS011;6503;48.572;13.460;2023-04-01T16:40:33;1.27;;;0.90;;
12869;SDS011;6503;48.572;13.460;2023-04-01T16:57:11;3.13;;;1.50;;
12869;SDS011;6503;48.572;13.460;2023-04-01T16:59:44;2.55;;;1.08;;
12869;SDS011;6503;48.572;13.460;2023-04-01T17:05:37;1.27;;;0.95;;
12869;SDS011;6503;48.572;13.460;2023-04-01T17:08:10;0.85;;;0.80;;
12869;SDS011;6503;48.572;13.460;2023-04-01T17:11:03;0.80;;;0.60;;
12869;SDS011;6503;48.572;13.460;2023-04-01T17:13:45;1.65;;;0.80;;
12869;SDS011;6503;48.572;13.460;2023-04-01T17:16:25;1.15;;;0.82;;
12869;SDS011;6503;48.572;13.460;2023-04-01T17:19:29;3.17;;;1.13;;
12869;SDS011;6503;48.572;13.460;2023-04-01T17:26:03;2.00;;;1.00;;
12869;SDS011;6503;48.572;13.460;2023-04-01T17:28:33;3.15;;;1.20;;
12869;SDS011;6503;48.572;13.460;2023-04-01T17:52:13;4.07;;;1.33;;
12869;SDS011;6503;48.572;13.460;2023-04-01T17:55:18;2.00;;;1.23;;
12869;SDS011;6503;48.572;13.460;2023-04-01T17:58:09;3.25;;;1.50;;
12869;SDS011;6503;48.572;13.460;2023-04-01T18:01:18;1.60;;;1.50;;
12869;SDS011;6503;48.572;13.460;2023-04-01T18:26:42;4.15;;;1.73;;
12869;SDS011;6503;48.572;13.460;2023-04-01T18:29:24;2.92;;;1.80;;
12869;SDS011;6503;48.572;13.460;2023-04-01T18:32:00;3.03;;;1.95;;
12869;SDS011;6503;48.572;13.460;2023-04-01T18:34:40;2.43;;;1.87;;
12869;SDS011;6503;48.572;13.460;2023-04-01T18:37:12;2.72;;;1.40;;
12869;SDS011;6503;48.572;13.460;2023-04-01T18:39:46;3.95;;;2.00;;
12869;SDS011;6503;48.572;13.460;2023-04-01T18:42:31;2.47;;;1.70;;
12869;SDS011;6503;48.572;13.460;2023-04-01T18:45:09;2.38;;;1.77;;
12869;SDS011;6503;48.572;13.460;2023-04-01T18:47:50;1.80;;;1.50;;
12869;SDS011;6503;48.572;13.460;2023-04-01T18:50:40;2.28;;;1.50;;
12869;SDS011;6503;48.572;13.460;2023-04-01T18:53:15;2.10;;;1.60;;
12869;SDS011;6503;48.572;13.460;2023-04-01T18:55:56;5.03;;;2.35;;
12869;SDS011;6503;48.572;13.460;2023-04-01T18:58:31;3.60;;;1.60;;
12869;SDS011;6503;48.572;13.460;2023-04-01T19:01:18;4.53;;;2.42;;
12869;SDS011;6503;48.572;13.460;2023-04-01T19:04:07;4.60;;;2.22;;
12869;SDS011;6503;48.572;13.460;2023-04-01T19:06:41;2.83;;;1.63;;
12869;SDS011;6503;48.572;13.460;2023-04-01T19:09:16;4.47;;;2.17;;
12869;SDS011;6503;48.572;13.460;2023-04-01T19:11:55;2.67;;;2.00;;
12869;SDS011;6503;48.572;13.460;2023-04-01T19:14:29;3.33;;;1.80;;
12869;SDS011;6503;48.572;13.460;2023-04-01T19:17:00;3.00;;;1.83;;
12869;SDS011;6503;48.572;13.460;2023-04-01T19:19:48;2.70;;;1.67;;
12869;SDS011;6503;48.572;13.460;2023-04-01T19:22:28;3.20;;;1.85;;
12869;SDS011;6503;48.572;13.460;2023-04-01T19:25:22;1.75;;;1.42;;
12869;SDS011;6503;48.572;13.460;2023-04-01T19:27:58;2.78;;;1.75;;
12869;SDS011;6503;48.572;13.460;2023-04-01T19:39:33;2.30;;;1.92;;
12869;SDS011;6503;48.572;13.460;2023-04-01T19:42:09;7.70;;;4.80;;
12869;SDS011;6503;48.572;13.460;2023-04-01T19:45:00;4.55;;;2.33;;
12869;SDS011;6503;48.572;13.460;2023-04-01T19:47:45;3.15;;;1.80;;
12869;SDS011;6503;48.572;13.460;2023-04-01T19:50:30;4.50;;;2.67;;
12869;SDS011;6503;48.572;13.460;2023-04-01T19:53:18;3.60;;;2.35;;
12869;SDS011;6503;48.572;13.460;2023-04-01T20:01:52;3.17;;;1.85;;
12869;SDS011;6503;48.572;13.460;2023-04-01T20:04:36;4.45;;;2.67;;
12869;SDS011;6503;48.572;13.460;2023-04-01T20:07:13;4.50;;;3.40;;
12869;SDS011;6503;48.572;13.460;2023-04-01T20:09:49;2.40;;;1.65;;
12869;SDS011;6503;48.572;13.460;2023-04-01T20:12:34;3.15;;;2.00;;
12869;SDS011;6503;48.572;13.460;2023-04-01T20:15:19;2.53;;;1.70;;
12869;SDS011;6503;48.572;13.460;2023-04-01T20:17:54;1.92;;;1.30;;
12869;SDS011;6503;48.572;13.460;2023-04-01T20:20:25;1.40;;;0.85;;
12869;SDS011;6503;48.572;13.460;2023-04-01T20:23:12;2.83;;;1.40;;
12869;SDS011;6503;48.572;13.460;2023-04-01T20:25:45;1.30;;;1.20;;
12869;SDS011;6503;48.572;13.460;2023-04-01T20:28:21;2.22;;;1.40;;
12869;SDS011;6503;48.572;13.460;2023-04-01T20:30:57;4.35;;;1.30;;
12869;SDS011;6503;48.572;13.460;2023-04-01T20:33:33;1.85;;;1.23;;
12869;SDS011;6503;48.572;13.460;2023-04-01T20:36:10;1.92;;;1.55;;
12869;SDS011;6503;48.572;13.460;2023-04-01T20:41:31;1.90;;;1.40;;
12869;SDS011;6503;48.572;13.460;2023-04-01T20:44:16;4.93;;;2.00;;
12869;SDS011;6503;48.572;13.460;2023-04-01T20:46:48;3.35;;;2.20;;
12869;SDS011;6503;48.572;13.460;2023-04-01T20:52:19;4.15;;;1.88;;
12869;SDS011;6503;48.572;13.460;2023-04-01T20:55:13;4.15;;;1.67;;
12869;SDS011;6503;48.572;13.460;2023-04-01T20:57:45;4.32;;;1.88;;
12869;SDS011;6503;48.572;13.460;2023-04-01T21:00:24;3.55;;;2.45;;
12869;SDS011;6503;48.572;13.460;2023-04-01T21:03:02;4.20;;;1.73;;
12869;SDS011;6503;48.572;13.460;2023-04-01T21:08:18;4.20;;;1.38;;
12869;SDS011;6503;48.572;13.460;2023-04-01T21:10:50;3.80;;;2.63;;
12869;SDS011;6503;48.572;13.460;2023-04-01T21:13:31;3.20;;;2.35;;
12869;SDS011;6503;48.572;13.460;2023-04-01T21:16:08;2.83;;;1.90;;